If you wish to contribute or participate in the discussions about articles you are invited to join SKYbrary as a registered user

 Actions

Beira Airport

From SKYbrary Wiki

FQBR
Airport
ICAO: FQBR – IATA: BEW
Summary
Name Beira Airport
Region Africa
Territory Mozambique MZ.gif
Location Beira
Serving Beira
Elevation 10.058 m
33 ft
33 ft10.058 m
Coordinates 19° 47' 48.56" S, 34° 54' 31.67" E
Runways
Designator Length Width Surface ROPS
6/24 920 m3,018.373 ft
45 m147.638 ft
ASP yes/yes
12/30 2400 m7,874.016 ft
45 m147.638 ft
ASP yes/yes
17/35 1725 m5,659.449 ft
45 m147.638 ft
ASP no/no


METAR
Observation FQBR 261500Z 11010KT 9999 FEW025 28/24 Q1011
Station Beira
Date/Time 26 April 2019 15:00:00
Wind direction 110°
Wind speed 10 kts
Lowest cloud amount few clouds
Temperature 28°C
Dew point 24°C
Humidity 78%
QNH 1011 hPa
Weather condition n/a